Time;durP1;ratioP1;P1;durP2;ratioP2;P2;SDS_P1;SDS_P2;PMS_P1;PMS_P2;Temp;Humidity;BMP_temperature;BMP_pressure;BME280_temperature;BME280_humidity;BME280_pressure;Samples;Min_cycle;Max_cycle;Signal;HPM_P1;HPM_P2
2020/12/03 00:00:42;;;;;;;43.60;26.53;;;0.90;99.90;;;;;;5082789;28;20850;-75
2020/12/03 00:03:16;;;;;;;46.40;25.60;;;0.80;99.90;;;;;;5068171;28;20416;-76
2020/12/03 00:05:44;;;;;;;44.53;26.53;;;0.80;99.90;;;;;;5049574;28;20971;-75
2020/12/03 00:08:12;;;;;;;40.83;25.77;;;0.70;99.90;;;;;;5067811;28;20475;-74
2020/12/03 00:10:37;;;;;;;40.43;24.80;;;0.80;99.90;;;;;;5068640;28;20432;-75
2020/12/03 00:13:12;;;;;;;41.37;24.77;;;0.80;99.90;;;;;;5087546;28;20415;-75
2020/12/03 00:26:40;;;;;;;45.07;24.83;;;0.70;99.90;;;;;;5065749;28;20420;-73
2020/12/03 00:29:06;;;;;;;47.47;24.57;;;0.70;99.90;;;;;;5064369;28;21027;-76
2020/12/03 00:31:31;;;;;;;44.17;24.00;;;0.70;99.90;;;;;;5086597;28;20440;-75
2020/12/03 00:33:58;;;;;;;45.20;25.67;;;0.70;99.90;;;;;;5085026;28;20186;-75
2020/12/03 00:36:24;;;;;;;45.00;24.30;;;0.70;99.90;;;;;;5067152;28;20291;-74
2020/12/03 00:38:50;;;;;;;40.83;23.30;;;0.70;99.90;;;;;;5067455;28;20674;-72
2020/12/03 00:41:17;;;;;;;45.37;25.47;;;0.60;99.90;;;;;;5077137;28;20446;-73
2020/12/03 00:43:44;;;;;;;48.37;26.17;;;0.60;99.90;;;;;;5069328;28;20676;-73
2020/12/03 00:46:10;;;;;;;44.50;26.33;;;0.70;99.90;;;;;;5084832;28;20432;-74
2020/12/03 00:48:35;;;;;;;43.93;24.40;;;0.70;99.90;;;;;;5081817;28;20482;-74
2020/12/03 00:51:01;;;;;;;44.87;24.97;;;0.70;99.90;;;;;;5082605;28;20209;-75
2020/12/03 00:53:26;;;;;;;44.80;24.03;;;0.70;99.90;;;;;;5070828;28;20191;-74
2020/12/03 00:55:52;;;;;;;45.67;24.50;;;0.70;99.90;;;;;;5085450;28;20180;-74
2020/12/03 00:58:17;;;;;;;45.10;25.23;;;0.70;99.90;;;;;;5069121;28;20205;-72
2020/12/03 01:00:44;;;;;;;41.40;24.63;;;0.60;99.90;;;;;;5087621;28;20187;-75
2020/12/03 01:03:09;;;;;;;50.17;24.90;;;0.70;99.90;;;;;;5078565;28;20193;-72
2020/12/03 01:05:35;;;;;;;41.77;22.40;;;0.60;99.90;;;;;;5087497;28;20513;-77
2020/12/03 01:08:01;;;;;;;44.33;22.77;;;0.60;99.90;;;;;;5059382;28;20217;-72
2020/12/03 01:10:30;;;;;;;41.23;23.67;;;0.60;99.90;;;;;;5087595;28;20440;-73
2020/12/03 01:12:56;;;;;;;39.10;22.90;;;0.60;99.90;;;;;;5082045;28;20181;-75
2020/12/03 01:15:23;;;;;;;48.03;25.27;;;0.70;99.90;;;;;;5087835;28;20445;-73
2020/12/03 01:17:48;;;;;;;41.07;23.30;;;0.60;99.90;;;;;;5087828;28;20443;-73
2020/12/03 01:20:18;;;;;;;43.47;24.10;;;0.70;99.90;;;;;;5087826;28;20967;-74
2020/12/03 01:22:43;;;;;;;44.60;23.17;;;0.60;99.90;;;;;;5059922;28;20181;-74
2020/12/03 01:25:09;;;;;;;44.07;23.83;;;0.60;99.90;;;;;;5086918;28;20871;-75
2020/12/03 01:27:36;;;;;;;40.47;23.00;;;0.60;99.90;;;;;;5086630;28;20288;-75
2020/12/03 01:30:03;;;;;;;49.03;24.27;;;0.60;99.90;;;;;;5086962;28;20419;-76
2020/12/03 01:32:29;;;;;;;42.93;24.13;;;0.60;99.90;;;;;;5086601;28;20517;-76
2020/12/03 01:34:55;;;;;;;43.57;23.47;;;0.50;99.90;;;;;;5074340;28;21001;-73
2020/12/03 01:37:20;;;;;;;41.43;24.20;;;0.50;99.90;;;;;;5086312;28;20231;-75
2020/12/03 01:39:46;;;;;;;44.00;23.83;;;0.50;99.90;;;;;;5068383;28;20182;-74
2020/12/03 01:42:14;;;;;;;36.03;21.63;;;0.60;99.90;;;;;;5068773;28;20181;-76
2020/12/03 01:44:43;;;;;;;42.03;21.80;;;0.60;99.90;;;;;;5068721;28;20928;-74
2020/12/03 01:47:20;;;;;;;40.83;23.10;;;0.60;99.90;;;;;;5071597;28;20819;-79
2020/12/03 01:49:46;;;;;;;38.47;21.27;;;0.60;99.90;;;;;;5092073;28;20466;-76
2020/12/03 01:52:12;;;;;;;42.00;23.57;;;0.60;99.90;;;;;;5068725;28;20941;-75
2020/12/03 01:54:38;;;;;;;39.33;23.93;;;0.60;99.90;;;;;;5084707;28;20258;-75
2020/12/03 01:57:03;;;;;;;38.17;22.50;;;0.60;99.90;;;;;;5079709;28;20958;-74
2020/12/03 01:59:40;;;;;;;41.27;22.20;;;0.60;99.90;;;;;;5068420;28;20226;-75
2020/12/03 02:02:08;;;;;;;38.70;23.90;;;0.50;99.90;;;;;;5090300;28;20188;-74
2020/12/03 02:04:34;;;;;;;39.23;22.63;;;0.60;99.90;;;;;;5072598;28;20424;-74
2020/12/03 02:07:09;;;;;;;32.27;20.07;;;0.60;99.90;;;;;;5066978;28;20493;-74
2020/12/03 02:09:35;;;;;;;39.10;23.40;;;0.60;99.90;;;;;;5047721;28;20209;-73
2020/12/03 02:12:01;;;;;;;40.47;21.63;;;0.70;99.90;;;;;;5065391;28;20478;-77
2020/12/03 02:14:27;;;;;;;38.03;21.83;;;0.60;99.90;;;;;;5047410;28;20833;-74
2020/12/03 02:16:53;;;;;;;34.93;22.80;;;0.60;99.90;;;;;;5066650;28;20444;-74
2020/12/03 02:19:24;;;;;;;47.80;25.00;;;0.60;99.90;;;;;;5080421;28;20188;-73
2020/12/03 02:21:59;;;;;;;40.37;23.37;;;0.60;99.90;;;;;;5083333;28;20442;-74
2020/12/03 02:24:27;;;;;;;38.63;21.93;;;0.60;99.90;;;;;;5065345;28;21100;-76
2020/12/03 02:26:53;;;;;;;46.57;24.57;;;0.70;99.90;;;;;;5046723;28;20813;-75
2020/12/03 02:29:19;;;;;;;45.10;25.13;;;0.60;99.90;;;;;;5078854;28;20907;-73
2020/12/03 02:31:46;;;;;;;40.23;21.83;;;0.60;99.90;;;;;;5085750;28;20183;-73
2020/12/03 02:34:12;;;;;;;36.37;21.00;;;0.60;99.90;;;;;;5085829;28;20407;-72
2020/12/03 02:36:37;;;;;;;37.37;21.23;;;0.60;99.90;;;;;;5066589;28;20439;-74
2020/12/03 02:39:03;;;;;;;36.13;21.53;;;0.70;99.90;;;;;;5069213;28;20672;-74
2020/12/03 02:41:29;;;;;;;37.27;22.00;;;0.60;99.90;;;;;;5064971;28;20685;-73
2020/12/03 02:43:54;;;;;;;42.27;22.80;;;0.70;99.90;;;;;;5075462;28;20415;-74
2020/12/03 02:46:20;;;;;;;40.30;21.37;;;0.60;99.90;;;;;;5085176;28;20312;-73
2020/12/03 02:48:45;;;;;;;36.50;22.37;;;0.60;99.90;;;;;;5083262;28;20295;-72
2020/12/03 02:51:14;;;;;;;45.23;23.03;;;0.60;99.90;;;;;;5085443;28;20192;-73
2020/12/03 02:53:40;;;;;;;36.00;22.07;;;0.60;99.90;;;;;;5067209;28;20264;-73
2020/12/03 02:56:06;;;;;;;41.47;21.57;;;0.60;99.90;;;;;;5084979;28;20514;-73
2020/12/03 02:58:31;;;;;;;42.17;21.90;;;0.60;99.90;;;;;;5085387;28;20422;-73
2020/12/03 03:00:57;;;;;;;43.97;23.90;;;0.70;99.90;;;;;;5053017;28;20216;-72
2020/12/03 03:03:22;;;;;;;39.47;22.57;;;0.70;99.90;;;;;;5085400;28;20215;-73
2020/12/03 03:05:48;;;;;;;40.40;24.20;;;0.70;99.90;;;;;;5085126;28;20268;-73
2020/12/03 03:08:13;;;;;;;40.43;22.67;;;0.70;99.90;;;;;;5084979;28;20791;-73
2020/12/03 03:10:39;;;;;;;35.47;21.07;;;0.70;99.90;;;;;;5085229;28;20254;-74
2020/12/03 03:13:04;;;;;;;36.97;22.07;;;0.70;99.90;;;;;;5085306;28;20205;-73
2020/12/03 03:15:30;;;;;;;36.17;22.50;;;0.70;99.90;;;;;;5058246;28;20228;-73
2020/12/03 03:17:55;;;;;;;41.53;21.03;;;0.70;99.90;;;;;;5080874;28;20208;-71
2020/12/03 03:20:21;;;;;;;34.67;20.33;;;0.80;99.90;;;;;;5085203;28;20197;-75
2020/12/03 03:22:47;;;;;;;38.30;20.67;;;0.80;99.90;;;;;;5077012;28;20182;-73
2020/12/03 03:25:12;;;;;;;29.27;18.63;;;0.80;99.90;;;;;;5068520;28;20834;-73
2020/12/03 03:27:38;;;;;;;36.03;20.00;;;0.80;99.90;;;;;;5068315;28;20210;-73
2020/12/03 03:30:06;;;;;;;33.60;19.23;;;0.80;99.90;;;;;;5068663;28;20291;-74
2020/12/03 03:32:32;;;;;;;34.70;17.97;;;0.80;99.90;;;;;;5068706;28;20787;-73
2020/12/03 03:34:57;;;;;;;29.40;17.40;;;0.80;99.90;;;;;;5050511;28;20412;-74
2020/12/03 03:37:23;;;;;;;33.63;18.07;;;0.80;99.90;;;;;;5068196;28;20193;-72
2020/12/03 03:39:49;;;;;;;25.90;15.70;;;0.80;99.90;;;;;;5068813;28;20704;-72
2020/12/03 03:42:14;;;;;;;29.60;16.97;;;0.90;99.90;;;;;;5054028;28;20193;-72
2020/12/03 03:44:40;;;;;;;28.50;17.07;;;0.90;99.90;;;;;;5077835;28;20201;-74
2020/12/03 03:47:05;;;;;;;27.67;16.87;;;0.90;99.90;;;;;;5088308;28;20217;-75
2020/12/03 03:49:31;;;;;;;31.40;17.83;;;0.90;99.90;;;;;;5088450;28;20205;-73
2020/12/03 03:51:56;;;;;;;23.90;16.17;;;0.90;99.90;;;;;;5074485;28;20203;-73
2020/12/03 03:54:22;;;;;;;24.60;14.90;;;0.90;99.90;;;;;;5088262;28;20181;-73
2020/12/03 03:56:48;;;;;;;25.80;15.20;;;0.90;99.90;;;;;;5082314;28;20284;-72
2020/12/03 03:59:13;;;;;;;25.87;15.43;;;0.90;99.90;;;;;;5088572;28;20527;-70
2020/12/03 04:01:39;;;;;;;22.30;14.17;;;1.00;99.90;;;;;;5078515;28;20719;-73
2020/12/03 04:04:04;;;;;;;22.73;14.10;;;1.00;99.90;;;;;;5090915;28;20184;-77
2020/12/03 04:06:30;;;;;;;25.40;15.60;;;1.00;99.90;;;;;;5110348;28;20240;-77
2020/12/03 04:08:55;;;;;;;25.67;15.87;;;1.00;99.90;;;;;;5110383;28;20212;-77
2020/12/03 04:11:21;;;;;;;23.70;15.50;;;1.00;99.90;;;;;;5092190;28;20541;-73
2020/12/03 04:13:46;;;;;;;26.47;16.37;;;1.00;99.90;;;;;;5084133;28;20221;-71
2020/12/03 04:16:12;;;;;;;28.87;15.43;;;1.00;99.90;;;;;;5087298;28;20189;-75
2020/12/03 04:18:39;;;;;;;25.87;16.37;;;1.10;99.90;;;;;;5069630;28;20281;-75
2020/12/03 04:21:07;;;;;;;21.50;13.97;;;1.00;99.90;;;;;;5088145;28;20929;-74
2020/12/03 04:23:33;;;;;;;26.93;14.80;;;1.10;99.90;;;;;;5070398;28;20842;-75
2020/12/03 04:26:00;;;;;;;23.80;14.80;;;1.00;99.90;;;;;;5081658;28;20427;-74
2020/12/03 04:28:26;;;;;;;22.77;14.33;;;1.00;99.90;;;;;;5087768;28;20476;-71
2020/12/03 04:30:52;;;;;;;25.37;14.67;;;1.00;99.90;;;;;;5070347;28;20493;-71
2020/12/03 04:33:17;;;;;;;25.73;16.13;;;1.00;99.90;;;;;;5071944;28;20268;-70
2020/12/03 04:35:43;;;;;;;23.50;15.20;;;1.10;99.90;;;;;;5087397;28;20185;-73
2020/12/03 04:38:10;;;;;;;28.67;16.87;;;1.10;99.90;;;;;;5069328;28;20209;-74
2020/12/03 04:40:39;;;;;;;26.80;15.60;;;1.10;99.90;;;;;;5087256;28;20200;-74
2020/12/03 04:43:19;;;;;;;30.50;17.73;;;1.00;99.90;;;;;;5058458;28;20443;-75
2020/12/03 04:45:49;;;;;;;28.43;18.77;;;1.00;99.90;;;;;;5085987;28;20423;-74
2020/12/03 04:48:44;;;;;;;26.33;16.90;;;1.00;99.90;;;;;;5087445;28;20493;-74
2020/12/03 04:51:54;;;;;;;26.20;15.70;;;1.00;99.90;;;;;;5087577;28;20472;-75
2020/12/03 04:54:43;;;;;;;30.40;17.47;;;1.00;99.90;;;;;;5057746;28;20431;-71
2020/12/03 04:57:40;;;;;;;30.37;17.70;;;1.00;99.90;;;;;;5068793;28;20493;-77
2020/12/03 05:00:40;;;;;;;28.53;16.97;;;1.00;99.90;;;;;;5087147;28;20420;-75
2020/12/03 05:03:24;;;;;;;20.97;15.87;;;1.00;99.90;;;;;;5085858;28;20415;-74
2020/12/03 05:06:26;;;;;;;22.57;16.20;;;1.00;99.90;;;;;;5044334;28;20462;-75
2020/12/03 05:09:20;;;;;;;21.83;16.53;;;1.00;99.90;;;;;;5066770;28;20467;-75
2020/12/03 05:11:50;;;;;;;24.50;16.60;;;1.00;99.90;;;;;;5066867;28;20419;-75
2020/12/03 05:14:40;;;;;;;26.90;15.50;;;1.00;99.90;;;;;;5067402;28;20443;-76
2020/12/03 05:17:19;;;;;;;22.50;16.67;;;1.00;99.90;;;;;;5086421;28;20536;-74
2020/12/03 05:20:22;;;;;;;23.87;15.70;;;1.00;99.90;;;;;;5086820;28;20914;-74
2020/12/03 05:22:58;;;;;;;27.50;17.13;;;1.00;99.90;;;;;;5075755;28;20420;-74
2020/12/03 05:25:25;;;;;;;28.47;18.27;;;1.00;99.90;;;;;;5065694;28;20463;-74
2020/12/03 05:27:53;;;;;;;25.00;15.60;;;1.00;99.90;;;;;;5081465;28;20453;-74
2020/12/03 05:30:20;;;;;;;24.27;15.83;;;1.00;99.90;;;;;;5063936;28;20432;-73
2020/12/03 05:32:46;;;;;;;26.40;15.60;;;1.00;99.90;;;;;;5072855;28;20565;-74
2020/12/03 05:35:12;;;;;;;20.03;14.70;;;1.00;99.90;;;;;;5086288;28;20934;-76
2020/12/03 05:37:39;;;;;;;28.17;17.67;;;1.00;99.90;;;;;;5079906;28;20439;-74
2020/12/03 05:40:18;;;;;;;27.03;17.40;;;1.00;99.90;;;;;;5086090;28;20246;-74
2020/12/03 05:42:44;;;;;;;28.17;15.50;;;1.00;99.90;;;;;;5068431;28;20480;-75
2020/12/03 05:45:19;;;;;;;21.73;14.43;;;1.00;99.90;;;;;;5069171;28;20432;-79
2020/12/03 05:47:50;;;;;;;24.97;14.73;;;1.00;99.90;;;;;;5057586;28;20208;-75
2020/12/03 05:50:39;;;;;;;25.00;16.10;;;1.10;99.90;;;;;;5052215;28;20432;-76
2020/12/03 05:53:28;;;;;;;20.87;15.70;;;1.10;99.90;;;;;;5037737;28;20565;-77
2020/12/03 05:56:20;;;;;;;20.10;15.77;;;1.20;99.90;;;;;;5054880;28;20507;-76
2020/12/03 05:58:46;;;;;;;23.73;14.93;;;1.20;99.90;;;;;;5060263;28;20958;-74
2020/12/03 06:01:25;;;;;;;21.90;16.50;;;1.10;99.90;;;;;;5065908;28;20451;-75
2020/12/03 06:04:17;;;;;;;25.63;16.00;;;1.20;99.90;;;;;;5060150;28;20187;-76
2020/12/03 06:06:57;;;;;;;20.77;15.37;;;1.20;99.90;;;;;;5074466;28;20980;-76
2020/12/03 06:09:34;;;;;;;21.67;15.53;;;1.20;99.90;;;;;;5077442;28;20466;-76
2020/12/03 06:12:37;;;;;;;19.40;13.80;;;1.20;99.90;;;;;;5057156;28;20503;-75
2020/12/03 06:15:14;;;;;;;16.90;13.80;;;1.20;99.90;;;;;;5047346;28;20451;-76
2020/12/03 06:17:59;;;;;;;20.67;14.37;;;1.20;99.90;;;;;;5081205;28;20939;-75
2020/12/03 06:20:45;;;;;;;19.37;13.83;;;1.20;99.90;;;;;;5057467;28;20424;-78
2020/12/03 06:23:29;;;;;;;19.07;13.93;;;1.20;99.90;;;;;;5047324;28;20511;-77
2020/12/03 06:26:15;;;;;;;20.40;15.63;;;1.20;99.90;;;;;;5065652;28;21009;-77
2020/12/03 06:28:59;;;;;;;16.93;14.13;;;1.20;99.90;;;;;;5053589;28;20460;-80
2020/12/03 06:31:52;;;;;;;22.13;14.77;;;1.20;99.90;;;;;;5048104;28;20424;-78
2020/12/03 06:34:31;;;;;;;23.67;14.83;;;1.30;99.90;;;;;;5086011;28;20429;-77
2020/12/03 06:37:04;;;;;;;23.07;15.30;;;1.30;99.90;;;;;;5068015;28;20531;-76
2020/12/03 06:40:10;;;;;;;18.77;13.80;;;1.30;99.90;;;;;;5055649;28;20719;-76
2020/12/03 06:43:02;;;;;;;19.50;14.67;;;1.20;99.90;;;;;;5040820;28;20801;-75
2020/12/03 06:45:42;;;;;;;20.00;14.80;;;1.30;99.90;;;;;;5063587;28;20440;-76
2020/12/03 06:48:38;;;;;;;20.60;14.03;;;1.30;99.90;;;;;;5060201;28;20462;-76
2020/12/03 06:51:38;;;;;;;20.73;15.40;;;1.40;99.90;;;;;;5067338;28;20507;-76
2020/12/03 06:54:26;;;;;;;19.10;13.13;;;1.30;99.90;;;;;;4967106;28;20424;-76
2020/12/03 06:57:30;;;;;;;20.00;14.27;;;1.30;99.90;;;;;;4953563;28;20863;-76
2020/12/03 07:00:20;;;;;;;19.90;15.30;;;1.30;99.90;;;;;;4986457;28;20823;-76
2020/12/03 07:03:24;;;;;;;21.40;15.37;;;1.40;99.90;;;;;;4990081;28;20474;-77
2020/12/03 07:06:44;;;;;;;23.77;15.73;;;1.40;99.90;;;;;;4950580;28;20439;-74
2020/12/03 07:09:37;;;;;;;19.90;15.10;;;1.40;99.90;;;;;;4979752;28;20995;-74
2020/12/03 07:12:41;;;;;;;26.07;15.90;;;1.40;99.90;;;;;;4999399;28;20443;-74
2020/12/03 07:15:22;;;;;;;26.00;17.27;;;1.40;99.90;;;;;;5003683;28;20433;-76
2020/12/03 07:18:12;;;;;;;25.37;16.00;;;1.40;99.90;;;;;;4987082;28;20558;-76
2020/12/03 07:21:15;;;;;;;22.83;16.67;;;1.50;99.90;;;;;;4976994;28;20951;-78
2020/12/03 07:24:05;;;;;;;23.30;17.80;;;1.40;99.90;;;;;;4984389;28;20578;-73
2020/12/03 07:26:52;;;;;;;22.83;15.33;;;1.40;99.90;;;;;;4984179;28;20493;-76
2020/12/03 07:29:36;;;;;;;20.87;15.90;;;1.50;99.90;;;;;;5001484;28;20467;-77
2020/12/03 07:32:04;;;;;;;25.60;17.20;;;1.50;99.90;;;;;;5067364;28;20455;-75
2020/12/03 07:34:41;;;;;;;24.03;17.70;;;1.50;99.90;;;;;;5054753;28;20892;-77
2020/12/03 07:37:32;;;;;;;29.33;18.67;;;1.50;99.90;;;;;;5067061;28;20438;-75
2020/12/03 07:39:57;;;;;;;22.63;18.40;;;1.50;99.90;;;;;;5064053;28;20958;-75
2020/12/03 07:42:23;;;;;;;25.33;19.50;;;1.50;99.90;;;;;;5094635;28;20415;-75
2020/12/03 07:44:53;;;;;;;24.37;19.20;;;1.50;99.90;;;;;;5089033;28;20438;-76
2020/12/03 07:47:39;;;;;;;27.90;19.00;;;1.60;99.90;;;;;;5070577;28;20435;-78
2020/12/03 07:50:07;;;;;;;26.90;19.97;;;1.50;99.90;;;;;;5065933;28;20463;-75
2020/12/03 07:52:37;;;;;;;25.30;20.10;;;1.50;99.90;;;;;;5073752;28;20513;-73
2020/12/03 07:55:21;;;;;;;28.47;17.30;;;1.60;99.90;;;;;;5068261;28;20924;-75
2020/12/03 07:57:56;;;;;;;26.07;17.90;;;1.60;99.90;;;;;;5067818;28;20443;-73
2020/12/03 08:00:24;;;;;;;22.93;18.37;;;1.60;99.90;;;;;;5076181;28;20450;-74
2020/12/03 08:02:54;;;;;;;22.77;18.30;;;1.60;99.90;;;;;;5079774;28;20438;-75
2020/12/03 08:05:38;;;;;;;24.27;17.57;;;1.60;99.90;;;;;;5087544;28;20426;-74
2020/12/03 08:08:04;;;;;;;27.60;18.13;;;1.60;99.90;;;;;;5053134;28;20511;-75
2020/12/03 08:10:38;;;;;;;25.70;17.10;;;1.60;99.90;;;;;;5067839;28;20803;-74
2020/12/03 08:13:27;;;;;;;26.60;17.93;;;1.60;99.90;;;;;;5074584;28;20419;-74
2020/12/03 08:16:30;;;;;;;26.47;19.00;;;1.70;99.90;;;;;;5079697;28;20423;-74
2020/12/03 08:19:09;;;;;;;24.47;17.93;;;1.80;99.90;;;;;;5087925;28;20942;-73
2020/12/03 08:21:39;;;;;;;24.40;17.60;;;1.70;99.90;;;;;;5075184;28;20434;-74
2020/12/03 08:24:15;;;;;;;21.80;16.87;;;1.80;99.90;;;;;;5076053;28;20777;-75
2020/12/03 08:26:41;;;;;;;21.50;16.53;;;1.80;99.90;;;;;;5069299;28;20950;-74
2020/12/03 08:29:19;;;;;;;22.83;15.47;;;1.80;99.90;;;;;;5082000;28;20526;-74
2020/12/03 08:31:44;;;;;;;20.43;16.33;;;1.80;99.90;;;;;;5067153;28;20196;-74
2020/12/03 08:34:10;;;;;;;24.27;16.83;;;1.90;99.90;;;;;;5062447;28;20441;-76
2020/12/03 08:36:35;;;;;;;24.60;17.03;;;1.90;99.90;;;;;;5073275;28;20224;-77
2020/12/03 08:39:01;;;;;;;20.23;16.00;;;1.90;99.90;;;;;;5086831;28;20200;-77
2020/12/03 08:41:28;;;;;;;23.13;16.60;;;2.00;99.90;;;;;;5067078;28;20200;-76
2020/12/03 08:44:00;;;;;;;21.50;16.43;;;2.00;99.90;;;;;;5079378;28;20271;-76
2020/12/03 08:46:31;;;;;;;23.17;17.50;;;2.00;99.90;;;;;;5084094;28;20465;-76
2020/12/03 08:48:56;;;;;;;22.83;17.13;;;2.00;99.90;;;;;;5087109;28;20470;-76
2020/12/03 08:51:22;;;;;;;23.03;15.47;;;2.10;99.90;;;;;;5065561;28;20973;-77
2020/12/03 08:53:49;;;;;;;24.37;16.70;;;2.10;99.90;;;;;;5082788;28;20190;-74
2020/12/03 08:56:38;;;;;;;26.10;17.57;;;2.10;99.90;;;;;;5074743;28;20193;-75
2020/12/03 08:59:15;;;;;;;24.07;16.67;;;2.10;99.90;;;;;;5076313;28;20978;-75
2020/12/03 09:01:43;;;;;;;22.93;17.87;;;2.20;99.90;;;;;;5080056;28;20442;-75
2020/12/03 09:04:09;;;;;;;20.50;15.90;;;2.20;99.90;;;;;;5075434;28;20432;-75
2020/12/03 09:06:49;;;;;;;18.10;15.47;;;2.30;99.90;;;;;;5056863;28;20495;-75
2020/12/03 09:09:23;;;;;;;17.60;12.50;;;2.30;99.90;;;;;;5080592;28;20455;-74
2020/12/03 09:11:50;;;;;;;19.07;14.40;;;2.30;99.90;;;;;;5054321;28;20435;-75
2020/12/03 09:14:16;;;;;;;19.13;13.70;;;2.30;99.90;;;;;;5087113;28;20489;-75
2020/12/03 09:16:49;;;;;;;20.23;16.27;;;2.40;99.90;;;;;;5074187;28;20447;-74
2020/12/03 09:19:24;;;;;;;17.93;13.20;;;2.40;99.90;;;;;;5085144;28;20193;-74
2020/12/03 09:21:51;;;;;;;18.90;14.20;;;2.50;99.90;;;;;;5075360;28;21024;-75
2020/12/03 09:24:22;;;;;;;15.90;11.27;;;2.50;99.90;;;;;;5066407;28;20520;-74
2020/12/03 09:26:48;;;;;;;17.80;13.10;;;2.50;99.90;;;;;;5072327;28;20803;-74
2020/12/03 09:29:14;;;;;;;18.37;14.63;;;2.40;99.90;;;;;;5081025;28;20531;-74
2020/12/03 09:31:40;;;;;;;17.70;14.80;;;2.50;99.90;;;;;;5075724;28;20859;-73
2020/12/03 09:34:07;;;;;;;16.50;12.00;;;2.50;99.90;;;;;;5066790;28;20181;-71
2020/12/03 09:36:34;;;;;;;15.23;11.43;;;2.50;99.90;;;;;;5069493;28;20484;-74
2020/12/03 09:39:00;;;;;;;13.03;11.10;;;2.60;99.90;;;;;;5080971;28;20515;-74
2020/12/03 09:41:26;;;;;;;13.93;11.60;;;2.60;99.90;;;;;;5053660;28;20450;-73
2020/12/03 09:43:56;;;;;;;15.47;11.70;;;2.60;99.90;;;;;;5081765;28;20430;-73
2020/12/03 09:46:26;;;;;;;13.63;11.13;;;2.60;99.90;;;;;;5083904;28;20588;-73
2020/12/03 09:48:53;;;;;;;11.23;10.10;;;2.70;99.90;;;;;;5082084;28;20469;-73
2020/12/03 09:51:23;;;;;;;13.97;10.80;;;2.70;99.90;;;;;;5086392;28;20426;-73
2020/12/03 09:53:50;;;;;;;12.33;10.07;;;2.60;99.90;;;;;;5081886;28;20790;-75
2020/12/03 09:56:20;;;;;;;14.90;11.57;;;2.70;99.90;;;;;;5081181;28;20454;-75
2020/12/03 09:58:46;;;;;;;13.00;10.83;;;2.80;99.90;;;;;;5082230;28;20828;-74
2020/12/03 10:01:14;;;;;;;17.80;13.10;;;2.80;99.90;;;;;;5082170;28;20808;-73
2020/12/03 10:04:08;;;;;;;16.47;11.80;;;2.80;99.90;;;;;;5077434;28;20455;-73
2020/12/03 10:06:38;;;;;;;17.20;12.23;;;2.80;99.90;;;;;;5079447;28;20459;-72
2020/12/03 10:09:10;;;;;;;18.93;13.97;;;2.80;99.90;;;;;;5071523;28;20463;-71
2020/12/03 10:12:14;;;;;;;18.40;13.67;;;2.90;99.90;;;;;;5078742;28;20526;-72
2020/12/03 10:14:45;;;;;;;16.80;14.03;;;2.80;99.90;;;;;;5086053;28;20443;-72
2020/12/03 10:17:18;;;;;;;20.73;15.30;;;2.70;99.90;;;;;;5077887;28;20451;-73
2020/12/03 10:19:46;;;;;;;21.97;15.80;;;2.70;99.90;;;;;;5074564;28;20510;-73
2020/12/03 10:22:17;;;;;;;23.33;16.00;;;2.70;99.90;;;;;;5053355;28;20990;-73
2020/12/03 10:24:46;;;;;;;20.97;15.50;;;2.60;99.90;;;;;;5065502;28;20408;-74
2020/12/03 10:27:20;;;;;;;23.53;16.23;;;2.60;99.90;;;;;;5074070;28;20479;-74
2020/12/03 10:30:00;;;;;;;21.30;15.73;;;2.60;99.90;;;;;;5053506;28;20471;-71
2020/12/03 10:32:27;;;;;;;22.43;16.17;;;2.60;99.90;;;;;;5057949;28;20434;-74
2020/12/03 10:34:54;;;;;;;25.63;17.83;;;2.60;99.90;;;;;;5085767;28;20445;-72
2020/12/03 10:37:27;;;;;;;24.37;16.67;;;2.60;99.90;;;;;;5071027;28;20548;-74
2020/12/03 10:39:58;;;;;;;22.30;16.50;;;2.60;99.90;;;;;;5078402;28;20804;-72
2020/12/03 10:42:30;;;;;;;26.57;18.20;;;2.60;99.90;;;;;;5076759;28;20435;-75
2020/12/03 10:45:04;;;;;;;23.50;15.90;;;2.70;99.90;;;;;;5085403;28;20443;-73
2020/12/03 10:47:34;;;;;;;26.77;18.23;;;2.60;99.90;;;;;;5076829;28;20474;-74
2020/12/03 10:50:01;;;;;;;21.07;17.27;;;2.70;99.90;;;;;;5085467;28;20493;-73
2020/12/03 10:52:27;;;;;;;24.20;18.70;;;2.80;99.90;;;;;;5057533;28;20435;-73
2020/12/03 10:55:00;;;;;;;22.77;16.57;;;2.80;99.90;;;;;;5075179;28;20489;-73
2020/12/03 10:57:30;;;;;;;23.47;16.83;;;2.80;99.90;;;;;;5049105;28;20462;-73
2020/12/03 10:59:59;;;;;;;19.00;14.03;;;2.80;99.90;;;;;;5074517;28;20457;-73
2020/12/03 11:02:39;;;;;;;20.57;15.70;;;2.80;99.90;;;;;;5085602;28;20630;-71
2020/12/03 11:05:08;;;;;;;21.90;14.70;;;2.80;99.90;;;;;;5065563;28;20430;-70
2020/12/03 11:07:35;;;;;;;18.93;13.90;;;2.90;99.90;;;;;;5061380;28;21017;-72
2020/12/03 11:10:01;;;;;;;19.67;13.67;;;2.90;99.90;;;;;;5064776;28;20503;-72
2020/12/03 11:12:27;;;;;;;18.03;13.70;;;2.90;99.90;;;;;;5065419;28;20908;-72
2020/12/03 11:14:53;;;;;;;20.40;13.43;;;3.00;99.90;;;;;;5065230;28;20987;-74
2020/12/03 11:17:22;;;;;;;21.63;15.03;;;3.00;99.90;;;;;;5077381;28;20451;-71
2020/12/03 11:19:56;;;;;;;21.00;15.73;;;3.00;99.90;;;;;;5085385;28;20819;-73
2020/12/03 11:22:40;;;;;;;17.33;12.93;;;3.00;99.90;;;;;;5078468;28;20419;-74
2020/12/03 11:25:08;;;;;;;16.80;13.80;;;3.10;99.90;;;;;;5051687;28;20444;-73
2020/12/03 11:27:37;;;;;;;16.07;11.93;;;3.10;99.90;;;;;;5065304;28;20971;-72
2020/12/03 11:30:16;;;;;;;16.67;12.93;;;3.20;99.90;;;;;;5086783;28;20467;-72
2020/12/03 11:32:50;;;;;;;16.53;12.07;;;3.30;99.90;;;;;;5102084;28;20422;-73
2020/12/03 11:35:25;;;;;;;13.97;10.57;;;3.30;99.90;;;;;;5101011;28;20434;-70
2020/12/03 11:37:55;;;;;;;14.47;10.50;;;3.30;99.90;;;;;;5079484;28;20546;-73
2020/12/03 11:40:56;;;;;;;15.00;10.40;;;3.30;99.90;;;;;;5060499;28;20514;-73
2020/12/03 11:48:39;;;;;;;12.17;9.77;;;3.40;99.90;;;;;;5080071;28;20992;-71
2020/12/03 11:51:05;;;;;;;12.33;9.10;;;3.40;99.90;;;;;;5088837;28;20422;-72
2020/12/03 11:53:31;;;;;;;12.73;8.50;;;3.50;99.90;;;;;;5089111;28;20419;-72
2020/12/03 11:55:57;;;;;;;12.53;8.67;;;3.60;99.90;;;;;;5088221;28;20257;-71
2020/12/03 11:58:29;;;;;;;11.00;9.50;;;3.60;99.90;;;;;;5078933;28;20890;-72
2020/12/03 12:01:12;;;;;;;12.80;9.80;;;3.60;99.90;;;;;;5070529;28;20242;-72
2020/12/03 12:03:40;;;;;;;10.80;8.63;;;3.60;99.90;;;;;;5070719;28;20504;-72
2020/12/03 12:06:13;;;;;;;10.40;8.90;;;3.70;99.90;;;;;;5087943;28;20419;-72
2020/12/03 12:08:48;;;;;;;11.30;8.10;;;3.70;99.90;;;;;;5088681;28;20465;-73
2020/12/03 12:11:19;;;;;;;9.93;7.20;;;3.80;99.90;;;;;;5088505;28;20472;-72
2020/12/03 12:13:45;;;;;;;9.30;7.67;;;3.80;99.90;;;;;;5089015;28;20426;-72
2020/12/03 12:16:11;;;;;;;13.03;8.80;;;3.80;99.90;;;;;;5087681;28;20415;-72
2020/12/03 12:18:38;;;;;;;9.90;7.77;;;3.80;99.90;;;;;;5088621;28;20213;-72
2020/12/03 12:21:05;;;;;;;11.13;7.40;;;3.70;99.90;;;;;;5088078;28;20434;-72
2020/12/03 12:23:30;;;;;;;9.53;8.10;;;3.70;99.90;;;;;;5053914;28;20444;-73
2020/12/03 12:25:56;;;;;;;11.13;7.23;;;3.80;99.90;;;;;;5067823;28;20808;-72
2020/12/03 12:28:21;;;;;;;10.47;7.67;;;3.90;99.90;;;;;;5067865;28;20740;-72
2020/12/03 12:30:47;;;;;;;11.63;8.23;;;3.80;99.90;;;;;;5050363;28;20190;-72
2020/12/03 12:33:12;;;;;;;10.20;8.30;;;3.90;99.90;;;;;;5049549;28;20187;-72
2020/12/03 12:35:38;;;;;;;11.37;8.77;;;3.80;99.90;;;;;;5049564;28;20213;-72
2020/12/03 12:38:03;;;;;;;9.10;8.10;;;3.80;99.90;;;;;;5049711;28;20258;-72
2020/12/03 12:40:30;;;;;;;9.27;8.13;;;3.90;99.90;;;;;;5067789;28;20260;-72
2020/12/03 12:42:55;;;;;;;9.53;7.40;;;3.90;99.90;;;;;;5067489;28;20182;-72
2020/12/03 12:45:21;;;;;;;9.60;8.17;;;4.00;99.90;;;;;;5067223;28;20943;-72
2020/12/03 12:47:48;;;;;;;9.03;8.10;;;4.10;99.90;;;;;;5067382;28;20225;-72
2020/12/03 12:50:13;;;;;;;10.17;7.67;;;4.10;99.90;;;;;;5067497;28;20231;-73
2020/12/03 12:52:39;;;;;;;10.13;8.20;;;4.10;99.90;;;;;;5067617;28;20928;-72
2020/12/03 12:55:04;;;;;;;12.57;9.20;;;4.00;99.90;;;;;;5048857;28;20529;-72
2020/12/03 12:57:30;;;;;;;10.80;8.43;;;4.10;99.90;;;;;;5067058;28;20208;-72
2020/12/03 12:59:56;;;;;;;11.47;7.87;;;4.10;99.90;;;;;;5067712;28;20196;-71
2020/12/03 13:02:21;;;;;;;10.93;8.70;;;4.10;99.90;;;;;;5067536;28;20641;-72
2020/12/03 13:04:47;;;;;;;9.43;7.63;;;4.10;99.90;;;;;;5049394;28;20360;-72
2020/12/03 13:07:13;;;;;;;10.00;8.10;;;4.10;99.90;;;;;;5066965;28;20788;-72
2020/12/03 13:09:38;;;;;;;11.90;8.47;;;4.20;99.90;;;;;;5067141;28;20209;-72
2020/12/03 13:12:04;;;;;;;16.00;9.47;;;4.30;99.90;;;;;;5067125;28;20724;-72
2020/12/03 13:14:30;;;;;;;9.53;8.10;;;4.40;99.90;;;;;;5048933;28;20635;-72
2020/12/03 13:16:56;;;;;;;10.27;8.47;;;4.70;99.90;;;;;;5067470;28;20703;-72
2020/12/03 13:19:22;;;;;;;10.37;8.73;;;4.90;99.90;;;;;;5067470;28;20178;-71